Skip to main content
 
Boise Air Terminal/Gowen Field, Boise, ID: 5/20/2024 13:53
Visibility10 statute mileswind sock with sun and a few clouds
View 7-Day Forecast
Sky/CloudsFew at 7500ft
Weather [last 24 hours]None
Pressure29.99 in.Hg
Dew Point27 °F (-2.8 °C)
Relative Humidity24.4 %
Temperature64 °F (17.8 °C)red thermometer
Reading TimeMinimum to Maximum Temperature
6-hr ending 5/20@11:5343 °F to 62.1 °F (6.1 °C to 16.7 °C)
6-hr ending 5/20@05:5344.1 °F to 52 °F (6.7 °C to 11.1 °C)
6-hr ending 5/19@23:5352 °F to 64 °F (11.1 °C to 17.8 °C)
6-hr ending 5/19@17:5355 °F to 64 °F (12.8 °C to 17.8 °C)
24-hr ending 5/20@00:5344.1 °F to 64 °F (6.7 °C to 17.8 °C)
Wind26.5 MPH 23 KT gusting to 35.7 MPH 31 KTgreen arrow pointing 292.5 degrees
Wind FromWest/Northwest (300 Degrees)
Last Hour's Peak Wind39.1 MPH 34 KT on 5/20@13:19
Last Hour's Peak Wind FromNorth/Northwest (340 Degrees)
Rolling 24-hr Peak Wind39.1 MPH 34 KT on 5/20@13:19
Rolling 24-hr Peak Wind FromNorth/Northwest (340 Degrees)
Twilight Begins2024-05-20T05:40:47
Sunrise2024-05-20T06:14:31
Sunset2024-05-20T21:09:01
Twilight Ends2024-05-20T21:42:52
METARKBOI 201953Z 30023G31KT 10SM FEW075 18/M03 A2999 RMK AO2 PK WND 34034/1919 SLP145 T01781028